Time;durP1;ratioP1;P1;durP2;ratioP2;P2;SDS_P1;SDS_P2;PMS_P1;PMS_P2;Temp;Humidity;BMP_temperature;BMP_pressure;BME280_temperature;BME280_humidity;BME280_pressure;Samples;Min_cycle;Max_cycle;Signal;HPM_P1;HPM_P2
2023/12/03 00:02:58;;;;;;;27.63;8.88;;;;;;;0.19;100.00;101445.53;6353105;28;20470;-70
2023/12/03 00:06:00;;;;;;;28.98;9.50;;;;;;;0.19;100.00;101448.13;6352661;28;20073;-68
2023/12/03 00:09:02;;;;;;;29.67;9.65;;;;;;;0.17;100.00;101447.25;6352954;28;20431;-69
2023/12/03 00:12:04;;;;;;;34.05;9.63;;;;;;;0.11;100.00;101451.56;6352736;28;20371;-68
2023/12/03 00:15:06;;;;;;;29.45;9.98;;;;;;;0.14;100.00;101451.56;6352362;28;20051;-70
2023/12/03 00:18:07;;;;;;;24.70;8.85;;;;;;;0.17;100.00;101456.72;6352993;28;20054;-70
2023/12/03 00:21:10;;;;;;;30.17;9.25;;;;;;;0.20;100.00;101460.19;6352895;28;20051;-70
2023/12/03 00:24:12;;;;;;;28.88;8.57;;;;;;;0.22;100.00;101455.00;6352543;28;20055;-69
2023/12/03 00:27:13;;;;;;;24.40;9.45;;;;;;;0.13;100.00;101445.50;6352994;28;20043;-70
2023/12/03 00:30:15;;;;;;;26.10;9.20;;;;;;;0.17;100.00;101436.91;6352329;28;20130;-70
2023/12/03 00:33:16;;;;;;;28.95;10.63;;;;;;;0.15;100.00;101441.22;6352259;28;20478;-70
2023/12/03 00:36:19;;;;;;;25.65;9.00;;;;;;;0.21;100.00;101436.06;6352268;28;20051;-68
2023/12/03 00:39:20;;;;;;;26.33;8.68;;;;;;;0.21;100.00;101437.78;6352257;28;20047;-70
2023/12/03 00:42:22;;;;;;;36.85;9.98;;;;;;;0.25;100.00;101444.69;6352427;28;20048;-70
2023/12/03 00:45:23;;;;;;;29.83;11.05;;;;;;;0.24;100.00;101438.66;6351984;28;20047;-70
2023/12/03 00:48:25;;;;;;;24.88;9.25;;;;;;;0.20;100.00;101447.25;6352098;28;20070;-68
2023/12/03 00:51:27;;;;;;;28.02;9.18;;;;;;;0.21;100.00;101448.13;6351911;28;20074;-69
2023/12/03 00:54:29;;;;;;;29.20;9.93;;;;;;;0.24;100.00;101448.13;6352031;28;20056;-68
2023/12/03 00:57:30;;;;;;;29.20;10.43;;;;;;;0.29;100.00;101445.53;6351958;28;20058;-69
2023/12/03 01:00:32;;;;;;;24.00;9.43;;;;;;;0.25;100.00;101450.69;6351756;28;20333;-69
2023/12/03 01:03:33;;;;;;;25.27;9.75;;;;;;;0.15;100.00;101451.56;6351471;28;20365;-69
2023/12/03 01:06:35;;;;;;;31.98;10.50;;;;;;;0.15;100.00;101448.97;6351816;28;20109;-69
2023/12/03 01:09:37;;;;;;;27.42;9.88;;;;;;;0.13;100.00;101445.50;6351691;28;20047;-69
2023/12/03 01:12:38;;;;;;;28.90;11.38;;;;;;;0.13;100.00;101452.41;6351407;28;20070;-69
2023/12/03 01:15:40;;;;;;;29.77;10.98;;;;;;;0.18;100.00;101461.91;6351509;28;20047;-69
2023/12/03 01:18:41;;;;;;;30.90;11.75;;;;;;;0.14;100.00;101460.19;6351405;28;20047;-69
2023/12/03 01:21:44;;;;;;;34.30;11.15;;;;;;;0.09;100.00;101458.44;6351419;28;20048;-69
2023/12/03 01:24:45;;;;;;;28.95;10.48;;;;;;;0.06;100.00;101463.63;6350503;28;20348;-68
2023/12/03 01:27:46;;;;;;;31.10;12.60;;;;;;;0.08;100.00;101473.06;6351429;28;20043;-68
2023/12/03 01:30:48;;;;;;;26.83;10.57;;;;;;;0.09;100.00;101467.06;6351014;28;20044;-68
2023/12/03 01:33:49;;;;;;;38.05;13.80;;;;;;;0.07;100.00;101466.19;6351175;28;20055;-69
2023/12/03 01:36:52;;;;;;;31.25;11.70;;;;;;;0.14;100.00;101483.44;6350787;28;20050;-68
2023/12/03 01:39:53;;;;;;;37.08;12.43;;;;;;;0.12;100.00;101477.41;6350886;28;20052;-69
2023/12/03 01:42:54;;;;;;;32.78;12.30;;;;;;;0.16;100.00;101481.72;6350713;28;20074;-70
2023/12/03 01:45:56;;;;;;;37.00;11.63;;;;;;;0.13;100.00;101480.84;6350436;28;20047;-69
2023/12/03 01:48:57;;;;;;;42.38;13.57;;;;;;;0.17;100.00;101477.41;6350931;28;20051;-68
2023/12/03 01:52:01;;;;;;;38.88;12.88;;;;;;;0.15;100.00;101485.16;6350549;28;20051;-69
2023/12/03 01:55:03;;;;;;;39.25;14.40;;;;;;;0.27;100.00;101489.47;6350615;28;20044;-69
2023/12/03 01:58:05;;;;;;;37.35;12.63;;;;;;;0.24;100.00;101486.91;6350637;28;20058;-69
2023/12/03 02:01:07;;;;;;;45.28;13.98;;;;;;;0.21;100.00;101487.75;6350432;28;20329;-69
2023/12/03 02:04:08;;;;;;;36.70;13.52;;;;;;;0.22;100.00;101492.03;6341634;28;20055;-69
2023/12/03 02:07:11;;;;;;;42.10;14.73;;;;;;;0.13;100.00;101498.94;6350428;28;20070;-70
2023/12/03 02:10:13;;;;;;;46.63;15.65;;;;;;;0.16;100.00;101491.19;6344616;28;20048;-70
2023/12/03 02:13:14;;;;;;;45.25;15.05;;;;;;;0.21;100.00;101492.06;6349830;28;20356;-69
2023/12/03 02:16:16;;;;;;;40.08;14.57;;;;;;;0.22;100.00;101497.22;6344472;28;20048;-69
2023/12/03 02:19:17;;;;;;;42.22;13.55;;;;;;;0.12;100.00;101492.03;6350263;28;20201;-69
2023/12/03 02:22:20;;;;;;;39.38;13.80;;;;;;;0.18;100.00;101490.34;6350475;28;20059;-69
2023/12/03 02:25:23;;;;;;;44.45;16.23;;;;;;;0.17;100.00;101493.75;6350187;28;20040;-69
2023/12/03 02:28:24;;;;;;;42.63;14.60;;;;;;;0.16;100.00;101497.22;6350408;28;20047;-69
2023/12/03 02:31:26;;;;;;;41.90;14.20;;;;;;;0.22;100.00;101494.63;6349893;28;20370;-69
2023/12/03 02:34:27;;;;;;;42.75;15.43;;;;;;;0.11;100.00;101496.34;6350369;28;20048;-69
2023/12/03 02:37:28;;;;;;;41.97;13.93;;;;;;;0.22;100.00;101496.34;6355071;28;20054;-69
2023/12/03 02:40:32;;;;;;;42.90;14.43;;;;;;;0.20;100.00;101506.69;6355447;28;20474;-69
2023/12/03 02:43:34;;;;;;;38.85;12.85;;;;;;;0.21;100.00;101505.84;6354993;28;20058;-69
2023/12/03 02:46:35;;;;;;;40.40;14.38;;;;;;;0.17;100.00;101504.09;6355137;27;20051;-69
2023/12/03 02:49:36;;;;;;;46.72;14.27;;;;;;;0.17;100.00;101509.28;6355023;28;20043;-69
2023/12/03 02:52:38;;;;;;;42.75;15.00;;;;;;;0.18;100.00;101511.03;6354847;28;20431;-69
2023/12/03 02:55:40;;;;;;;44.03;15.48;;;;;;;0.19;100.00;101512.75;6354907;28;20055;-69
2023/12/03 02:58:42;;;;;;;49.30;14.52;;;;;;;0.18;100.00;101523.06;6354781;28;20048;-71
2023/12/03 03:01:43;;;;;;;49.67;15.98;;;;;;;0.21;100.00;101523.06;6355255;28;20084;-69
2023/12/03 03:04:45;;;;;;;45.58;14.75;;;;;;;0.25;100.00;101533.41;6355051;28;20058;-69
2023/12/03 03:07:46;;;;;;;40.60;13.45;;;;;;;0.32;100.00;101529.13;6355451;28;20124;-70
2023/12/03 03:10:49;;;;;;;42.95;15.57;;;;;;;0.32;100.00;101533.41;6354655;28;20059;-70
2023/12/03 03:13:50;;;;;;;46.50;14.88;;;;;;;0.31;100.00;101536.88;6352232;28;20051;-69
2023/12/03 03:16:52;;;;;;;42.28;15.52;;;;;;;0.30;100.00;101538.59;6353867;28;20046;-69
2023/12/03 03:19:53;;;;;;;45.60;15.55;;;;;;;0.32;100.00;101538.59;6354464;28;20055;-69
2023/12/03 03:22:54;;;;;;;43.80;14.85;;;;;;;0.40;100.00;101532.56;6354065;28;20054;-70
2023/12/03 03:25:57;;;;;;;48.22;15.52;;;;;;;0.41;100.00;101533.41;6353777;28;20341;-69
2023/12/03 03:28:58;;;;;;;41.03;14.75;;;;;;;0.38;100.00;101541.19;6339000;28;20051;-69
2023/12/03 03:31:59;;;;;;;45.90;14.15;;;;;;;0.39;100.00;101538.59;6328523;28;20052;-68
2023/12/03 03:35:01;;;;;;;41.85;14.35;;;;;;;0.38;100.00;101536.88;6328635;28;20052;-68
2023/12/03 03:38:02;;;;;;;39.70;14.50;;;;;;;0.37;100.00;101536.91;6328204;28;20047;-68
2023/12/03 03:41:05;;;;;;;40.30;14.68;;;;;;;0.34;100.00;101532.56;6328388;28;20329;-68
2023/12/03 03:44:06;;;;;;;48.53;14.80;;;;;;;0.35;100.00;101538.59;6327743;28;20048;-69
2023/12/03 03:47:08;;;;;;;45.45;15.07;;;;;;;0.34;100.00;101549.81;6327879;28;20352;-68
2023/12/03 03:50:10;;;;;;;44.30;15.55;;;;;;;0.30;100.00;101550.66;6328167;28;20089;-68
2023/12/03 03:53:11;;;;;;;47.65;15.68;;;;;;;0.28;100.00;101545.50;6327911;28;20052;-68
2023/12/03 03:56:16;;;;;;;43.33;14.05;;;;;;;0.32;100.00;101548.91;6328013;28;20333;-68
2023/12/03 03:59:17;;;;;;;47.35;15.38;;;;;;;0.30;100.00;101556.69;6328251;28;20075;-69
2023/12/03 04:02:19;;;;;;;33.53;13.60;;;;;;;0.29;100.00;101551.53;6327763;28;20360;-69
2023/12/03 04:05:20;;;;;;;36.63;11.98;;;;;;;0.27;100.00;101551.50;6345698;28;20043;-69
2023/12/03 04:08:21;;;;;;;44.25;14.85;;;;;;;0.25;100.00;101546.34;6350127;27;20047;-69
2023/12/03 04:11:24;;;;;;;41.15;14.40;;;;;;;0.17;100.00;101552.34;6352779;27;20356;-68
2023/12/03 04:14:25;;;;;;;47.47;14.57;;;;;;;0.31;100.00;101554.97;6349442;28;20048;-69
2023/12/03 04:17:27;;;;;;;48.53;16.00;;;;;;;0.22;100.00;101560.97;6352861;28;20460;-69
2023/12/03 04:20:28;;;;;;;45.70;15.80;;;;;;;0.24;100.00;101561.84;6352979;28;20050;-69
2023/12/03 04:23:29;;;;;;;45.95;14.80;;;;;;;0.27;100.00;101559.25;6352611;28;20428;-70
2023/12/03 04:26:32;;;;;;;48.33;14.48;;;;;;;0.32;100.00;101560.16;6353017;28;20043;-68
2023/12/03 04:29:33;;;;;;;43.60;15.93;;;;;;;0.38;100.00;101565.31;6352551;28;20047;-68
2023/12/03 04:32:35;;;;;;;37.80;14.27;;;;;;;0.45;100.00;101561.88;6352681;28;20043;-68
2023/12/03 04:35:36;;;;;;;37.25;12.90;;;;;;;0.47;100.00;101560.16;6352422;28;20435;-68
2023/12/03 04:38:37;;;;;;;41.13;15.07;;;;;;;0.52;100.00;101567.06;6352163;28;20062;-68
2023/12/03 04:41:40;;;;;;;42.15;15.05;;;;;;;0.53;100.00;101569.66;6352431;28;20059;-68
2023/12/03 04:44:41;;;;;;;53.70;16.25;;;;;;;0.57;100.00;101568.78;6352067;28;20186;-69
2023/12/03 04:47:42;;;;;;;33.92;12.82;;;;;;;0.57;100.00;101566.19;6352361;28;20051;-68
2023/12/03 04:50:44;;;;;;;42.75;13.80;;;;;;;0.59;100.00;101574.84;6351817;28;20058;-68
2023/12/03 04:53:45;;;;;;;30.13;11.70;;;;;;;0.58;100.00;101574.81;6352170;28;20054;-69
2023/12/03 04:56:48;;;;;;;42.83;14.32;;;;;;;0.58;100.00;101572.22;6335296;28;20056;-70
2023/12/03 04:59:49;;;;;;;47.38;16.67;;;;;;;0.57;100.00;101580.88;6325631;28;20055;-69
2023/12/03 05:02:50;;;;;;;45.03;14.60;;;;;;;0.56;100.00;101587.75;6326242;28;20052;-69
2023/12/03 05:05:52;;;;;;;49.72;14.50;;;;;;;0.55;100.00;101587.78;6326255;28;20055;-69
2023/12/03 05:08:53;;;;;;;43.42;13.63;;;;;;;0.57;100.00;101597.25;6326209;28;20426;-70
2023/12/03 05:11:56;;;;;;;54.17;17.13;;;;;;;0.56;100.00;101584.31;6332491;28;20051;-69
2023/12/03 05:14:57;;;;;;;60.58;15.50;;;;;;;0.60;100.00;101591.22;6350868;28;20439;-69
2023/12/03 05:17:59;;;;;;;45.20;14.30;;;;;;;0.61;100.00;101596.38;6339330;28;20044;-70
2023/12/03 05:21:00;;;;;;;42.47;14.48;;;;;;;0.58;100.00;101592.94;6345149;27;20476;-69
2023/12/03 05:24:01;;;;;;;53.05;15.95;;;;;;;0.57;100.00;101591.22;6339206;28;20050;-69
2023/12/03 05:27:04;;;;;;;48.25;13.80;;;;;;;0.61;100.00;101605.88;6351420;28;20047;-69
2023/12/03 05:30:07;;;;;;;41.38;14.48;;;;;;;0.64;100.00;101605.88;6341226;28;20123;-70
2023/12/03 05:33:09;;;;;;;51.22;16.63;;;;;;;0.65;100.00;101615.38;6328578;28;20436;-69
2023/12/03 05:36:20;;;;;;;53.53;16.00;;;;;;;0.64;100.00;101618.81;6337226;28;20050;-69
2023/12/03 05:39:21;;;;;;;56.30;17.83;;;;;;;0.49;100.00;101622.22;6336971;28;20145;-69
2023/12/03 05:42:24;;;;;;;57.22;19.08;;;;;;;0.56;100.00;101630.88;6338889;28;20565;-69
2023/12/03 05:45:25;;;;;;;57.47;16.30;;;;;;;0.56;100.00;101629.13;6325073;28;20055;-68
2023/12/03 05:48:27;;;;;;;56.58;16.05;;;;;;;0.62;100.00;101633.44;6325024;28;20044;-69
2023/12/03 05:51:28;;;;;;;60.72;17.65;;;;;;;0.61;100.00;101636.91;6324821;28;20044;-68
2023/12/03 05:54:29;;;;;;;52.38;16.58;;;;;;;0.58;100.00;101634.31;6325325;28;20055;-68
2023/12/03 05:57:32;;;;;;;55.03;16.80;;;;;;;0.60;100.00;101645.53;6324796;28;20047;-69
2023/12/03 06:00:34;;;;;;;66.63;17.90;;;;;;;0.61;100.00;101645.53;6324833;28;20040;-69
2023/12/03 06:03:35;;;;;;;63.30;17.33;;;;;;;0.58;100.00;101649.81;6323803;28;20040;-69
2023/12/03 06:06:37;;;;;;;57.70;19.08;;;;;;;0.60;100.00;101648.13;6333234;28;20355;-69
2023/12/03 06:09:38;;;;;;;56.13;16.48;;;;;;;0.59;100.00;101652.44;6340681;28;20114;-69
2023/12/03 06:12:41;;;;;;;59.17;16.30;;;;;;;0.62;100.00;101656.72;6336681;28;20051;-69
2023/12/03 06:15:42;;;;;;;52.35;15.13;;;;;;;0.63;100.00;101655.88;6337388;28;20051;-69
2023/12/03 06:18:44;;;;;;;66.38;17.13;;;;;;;0.60;100.00;101666.22;6338093;28;20047;-69
2023/12/03 06:21:45;;;;;;;56.50;16.20;;;;;;;0.60;100.00;101661.91;6336337;28;20047;-69
2023/12/03 06:24:46;;;;;;;53.55;17.45;;;;;;;0.60;100.00;101661.91;6343949;28;20348;-69
2023/12/03 06:27:49;;;;;;;42.95;15.73;;;;;;;0.62;100.00;101675.69;6350313;28;20044;-69
2023/12/03 06:30:50;;;;;;;48.58;15.25;;;;;;;0.67;100.00;101668.81;6349977;28;20070;-69
2023/12/03 06:33:51;;;;;;;60.90;17.63;;;;;;;0.63;100.00;101687.75;6350229;28;20051;-69
2023/12/03 06:36:53;;;;;;;56.10;18.10;;;;;;;0.67;100.00;101679.16;6349751;28;20047;-69
2023/12/03 06:39:54;;;;;;;57.65;16.73;;;;;;;0.58;100.00;101678.28;6350251;28;20059;-69
2023/12/03 06:42:57;;;;;;;64.43;16.05;;;;;;;0.63;100.00;101689.50;6349836;28;20052;-69
2023/12/03 06:45:59;;;;;;;63.72;17.40;;;;;;;0.64;100.00;101688.66;6350301;28;20043;-69
2023/12/03 06:49:00;;;;;;;52.38;15.85;;;;;;;0.66;100.00;101695.53;6350153;28;20052;-69
2023/12/03 06:52:01;;;;;;;52.05;16.17;;;;;;;0.64;100.00;101693.81;6350206;28;20055;-69
2023/12/03 06:55:03;;;;;;;45.92;15.60;;;;;;;0.64;100.00;101693.81;6350029;28;20352;-70
2023/12/03 06:58:05;;;;;;;64.72;14.63;;;;;;;0.65;100.00;101704.16;6349721;28;20350;-68
2023/12/03 07:01:07;;;;;;;46.63;13.65;;;;;;;0.71;100.00;101704.16;6350004;28;20048;-69
2023/12/03 07:04:09;;;;;;;49.30;15.07;;;;;;;0.73;100.00;101712.81;6349727;28;20048;-68
2023/12/03 07:07:10;;;;;;;52.08;14.60;;;;;;;0.73;100.00;101718.00;6349855;28;20542;-70
2023/12/03 07:10:11;;;;;;;45.95;14.13;;;;;;;0.75;100.00;101716.25;6349861;28;20048;-69
2023/12/03 07:13:14;;;;;;;48.33;12.48;;;;;;;0.79;100.00;101719.72;6349642;28;20047;-70
2023/12/03 07:16:15;;;;;;;44.63;14.57;;;;;;;0.78;100.00;101717.16;6349705;28;20051;-70
2023/12/03 07:19:16;;;;;;;50.25;15.30;;;;;;;0.79;100.00;101719.72;6349720;28;20048;-69
2023/12/03 07:22:18;;;;;;;39.58;14.75;;;;;;;0.68;100.00;101723.97;6352446;28;20051;-70
2023/12/03 07:25:19;;;;;;;49.97;15.55;;;;;;;0.70;100.00;101732.63;6354402;28;20047;-70
2023/12/03 07:28:22;;;;;;;50.78;16.92;;;;;;;0.67;100.00;101733.47;6354400;28;20052;-70
2023/12/03 07:31:23;;;;;;;48.42;13.93;;;;;;;0.72;100.00;101738.66;6353903;28;20051;-69
2023/12/03 07:34:25;;;;;;;46.42;14.95;;;;;;;0.76;100.00;101730.91;6351219;28;20043;-68
2023/12/03 07:37:27;;;;;;;44.60;13.68;;;;;;;0.79;100.00;101737.84;6352212;28;20051;-70
2023/12/03 07:40:28;;;;;;;45.80;15.55;;;;;;;0.85;100.00;101729.22;6353849;28;20043;-72
2023/12/03 07:43:31;;;;;;;55.33;16.45;;;;;;;0.82;100.00;101726.59;6353391;28;20070;-72
2023/12/03 07:46:32;;;;;;;54.85;15.98;;;;;;;0.79;100.00;101732.66;6349101;28;20048;-70
2023/12/03 07:49:34;;;;;;;51.72;15.07;;;;;;;0.81;100.00;101732.66;6345735;28;20082;-69
2023/12/03 07:52:35;;;;;;;51.33;15.30;;;;;;;0.81;100.00;101736.09;6353520;28;20047;-70
2023/12/03 07:55:37;;;;;;;49.22;16.58;;;;;;;0.85;100.00;101737.84;6349602;28;20040;-70
2023/12/03 07:58:39;;;;;;;54.38;15.30;;;;;;;0.81;100.00;101743.84;6353309;28;20047;-70
2023/12/03 08:01:41;;;;;;;53.00;15.23;;;;;;;0.80;100.00;101746.47;6353381;28;20433;-68
2023/12/03 08:04:43;;;;;;;50.08;14.88;;;;;;;0.75;100.00;101755.06;6345778;28;20324;-70
2023/12/03 08:07:44;;;;;;;54.10;15.23;;;;;;;0.80;100.00;101747.31;6351856;28;20506;-71
2023/12/03 08:10:45;;;;;;;58.72;16.30;;;;;;;0.80;100.00;101752.50;6351966;28;20443;-69
2023/12/03 08:13:48;;;;;;;60.90;15.45;;;;;;;0.83;100.00;101749.91;6352019;28;20048;-70
2023/12/03 08:16:49;;;;;;;62.03;17.42;;;;;;;0.84;100.00;101766.31;6351219;28;20043;-69
2023/12/03 08:19:51;;;;;;;70.05;17.80;;;;;;;0.80;100.00;101761.97;6352090;28;20355;-70
2023/12/03 08:22:53;;;;;;;68.22;17.27;;;;;;;0.79;100.00;101765.44;6352705;28;20054;-69
2023/12/03 08:25:54;;;;;;;63.00;16.23;;;;;;;0.80;100.00;101759.38;6353094;28;20059;-70
2023/12/03 08:28:57;;;;;;;56.53;16.50;;;;;;;0.82;100.00;101762.84;6352977;28;20050;-70
2023/12/03 08:31:58;;;;;;;64.10;17.60;;;;;;;0.87;100.00;101766.31;6352736;28;20047;-69
2023/12/03 08:34:59;;;;;;;63.35;16.80;;;;;;;0.86;100.00;101755.09;6352598;28;20441;-69
2023/12/03 08:38:01;;;;;;;49.17;14.50;;;;;;;0.85;100.00;101761.13;6352153;28;20040;-69
2023/12/03 08:41:02;;;;;;;56.72;16.40;;;;;;;0.86;100.00;101760.25;6352507;28;20428;-69
2023/12/03 08:44:05;;;;;;;45.45;14.05;;;;;;;0.87;100.00;101758.56;6352127;28;20062;-69
2023/12/03 08:47:07;;;;;;;46.65;12.73;;;;;;;0.77;100.00;101768.00;6352467;27;20039;-69
2023/12/03 08:50:08;;;;;;;33.72;12.75;;;;;;;0.81;100.00;101769.72;6352162;27;20043;-69
2023/12/03 08:53:09;;;;;;;37.13;11.98;;;;;;;0.76;100.00;101779.22;6352108;28;20428;-69
2023/12/03 08:56:12;;;;;;;44.15;12.10;;;;;;;0.72;100.00;101773.16;6352093;28;20055;-69
2023/12/03 08:59:14;;;;;;;37.58;12.18;;;;;;;0.66;100.00;101775.72;6352105;28;20047;-69
2023/12/03 09:02:16;;;;;;;38.50;13.05;;;;;;;0.81;100.00;101777.50;6351883;28;20051;-69
2023/12/03 09:05:17;;;;;;;37.10;13.15;;;;;;;0.86;100.00;101782.69;6351905;28;20047;-69
2023/12/03 09:08:19;;;;;;;36.67;12.60;;;;;;;0.95;100.00;101798.25;6351660;28;20050;-69
2023/12/03 09:11:22;;;;;;;48.17;14.20;;;;;;;0.95;100.00;101799.13;6351500;28;20360;-69
2023/12/03 09:14:25;;;;;;;35.25;12.02;;;;;;;0.81;100.00;101797.34;6351413;28;20076;-69
2023/12/03 09:17:27;;;;;;;34.70;12.15;;;;;;;0.80;100.00;101808.56;6351432;28;20047;-69
2023/12/03 09:20:28;;;;;;;41.85;12.30;;;;;;;0.85;100.00;101809.44;6351545;28;20176;-69
2023/12/03 09:23:29;;;;;;;36.58;12.15;;;;;;;0.89;100.00;101817.19;6351138;28;20411;-69
2023/12/03 09:26:31;;;;;;;39.05;13.73;;;;;;;0.99;100.00;101815.50;6351528;28;20058;-69
2023/12/03 09:29:33;;;;;;;44.75;12.05;;;;;;;0.85;100.00;101825.81;6351273;28;20047;-69
2023/12/03 09:32:35;;;;;;;34.42;12.55;;;;;;;0.92;100.00;101824.13;6351056;28;20351;-69
2023/12/03 09:35:36;;;;;;;37.90;11.63;;;;;;;0.93;100.00;101836.19;6350906;28;20050;-69
2023/12/03 09:38:37;;;;;;;44.72;10.75;;;;;;;0.89;100.00;101830.16;6350840;28;20050;-69
2023/12/03 09:41:45;;;;;;;43.85;13.05;;;;;;;0.94;100.00;101836.19;6350995;28;20047;-69
2023/12/03 09:44:52;;;;;;;31.40;12.40;;;;;;;0.85;100.00;101836.16;6350028;28;20047;-69
2023/12/03 09:48:00;;;;;;;38.05;12.55;;;;;;;0.83;100.00;101842.22;6351102;28;20047;-69
2023/12/03 09:51:02;;;;;;;47.07;12.57;;;;;;;0.84;100.00;101843.94;6350740;28;20044;-69
2023/12/03 09:54:06;;;;;;;40.70;12.75;;;;;;;0.92;100.00;101837.06;6350823;28;20052;-69
2023/12/03 09:57:09;;;;;;;53.78;15.60;;;;;;;0.92;100.00;101850.00;6350601;28;20432;-69
2023/12/03 10:00:12;;;;;;;40.45;12.98;;;;;;;0.95;100.00;101853.47;6350749;28;20048;-69
2023/12/03 10:03:14;;;;;;;40.38;14.02;;;;;;;0.87;100.00;101854.31;6350400;28;20051;-69
2023/12/03 10:06:19;;;;;;;40.67;11.98;;;;;;;0.86;100.00;101858.59;6350623;28;20436;-68
2023/12/03 10:09:22;;;;;;;29.70;11.48;;;;;;;0.88;100.00;101862.06;6350643;28;20439;-69
2023/12/03 10:12:26;;;;;;;32.90;11.57;;;;;;;0.88;100.00;101867.22;6350500;28;20058;-69
2023/12/03 10:15:28;;;;;;;35.63;11.52;;;;;;;0.93;100.00;101865.53;6350369;28;20054;-69
2023/12/03 10:18:30;;;;;;;38.42;11.93;;;;;;;0.87;100.00;101864.66;6350547;28;20059;-69
2023/12/03 10:21:31;;;;;;;35.35;11.65;;;;;;;0.91;100.00;101864.66;6350289;28;20059;-68
2023/12/03 10:24:46;;;;;;;35.17;11.65;;;;;;;0.86;100.00;101863.75;6350443;28;20052;-68
2023/12/03 10:27:47;;;;;;;38.47;11.95;;;;;;;0.77;100.00;101863.72;6350364;28;20096;-68
2023/12/03 10:30:51;;;;;;;34.35;11.30;;;;;;;0.94;100.00;101863.81;6350433;28;20043;-68
2023/12/03 10:33:52;;;;;;;40.47;11.68;;;;;;;0.96;100.00;101865.56;6350246;28;20048;-68
2023/12/03 10:36:54;;;;;;;36.00;13.07;;;;;;;0.84;100.00;101862.91;6349948;28;20056;-68
2023/12/03 10:39:57;;;;;;;39.28;12.10;;;;;;;0.80;100.00;101871.50;6350033;28;20343;-68
2023/12/03 10:43:00;;;;;;;39.38;12.48;;;;;;;0.95;100.00;101868.13;6349858;28;20051;-68
2023/12/03 10:46:04;;;;;;;33.30;11.40;;;;;;;0.97;100.00;101864.69;6350181;28;20051;-68
2023/12/03 10:49:06;;;;;;;32.65;11.00;;;;;;;0.87;100.00;101862.06;6350039;28;20043;-69
2023/12/03 10:52:09;;;;;;;34.50;12.02;;;;;;;0.94;100.00;101868.97;6349861;28;20352;-69
2023/12/03 10:55:10;;;;;;;39.08;10.80;;;;;;;0.98;100.00;101868.13;6349847;28;20059;-68
2023/12/03 10:58:19;;;;;;;29.27;9.50;;;;;;;0.96;100.00;101872.47;6354692;28;20039;-69
2023/12/03 11:01:25;;;;;;;40.70;11.63;;;;;;;1.02;100.00;101868.16;6354828;28;20054;-68
2023/12/03 11:04:36;;;;;;;35.35;11.55;;;;;;;1.07;100.00;101867.31;6354914;28;20043;-69
2023/12/03 11:07:38;;;;;;;31.98;11.52;;;;;;;1.01;100.00;101866.44;6354446;27;20565;-69
2023/12/03 11:10:39;;;;;;;39.13;12.57;;;;;;;1.10;100.00;101863.03;6354614;28;20051;-68
2023/12/03 11:13:42;;;;;;;31.98;10.73;;;;;;;1.14;100.00;101861.31;6354261;28;20436;-68
2023/12/03 11:16:54;;;;;;;31.88;10.57;;;;;;;1.16;100.00;101864.75;6354729;28;20048;-68
2023/12/03 11:20:00;;;;;;;38.92;13.77;;;;;;;1.00;100.00;101858.66;6354172;28;20502;-68
2023/12/03 11:23:18;;;;;;;32.55;11.73;;;;;;;1.15;100.00;101858.72;6354379;28;20047;-68
2023/12/03 11:26:19;;;;;;;38.13;11.10;;;;;;;1.10;100.00;101855.25;6354321;28;20055;-68
2023/12/03 11:29:46;;;;;;;31.95;11.50;;;;;;;1.28;100.00;101862.22;6354383;28;20054;-68
2023/12/03 11:32:49;;;;;;;26.77;9.65;;;;;;;1.24;100.00;101866.50;6353942;27;20054;-68
2023/12/03 11:35:51;;;;;;;25.15;9.90;;;;;;;1.23;100.00;101861.34;6354365;27;20055;-68
2023/12/03 11:38:53;;;;;;;25.77;8.93;;;;;;;1.27;100.00;101861.34;6353757;27;20046;-68
2023/12/03 11:42:00;;;;;;;26.58;8.45;;;;;;;1.15;100.00;101852.69;6353961;28;20051;-68
2023/12/03 11:45:19;;;;;;;26.58;7.63;;;;;;;1.19;100.00;101842.34;6353682;28;20047;-68
2023/12/03 11:48:25;;;;;;;20.42;8.63;;;;;;;1.27;100.00;101840.63;6353993;28;20047;-68
2023/12/03 11:51:26;;;;;;;20.92;6.65;;;;;;;1.23;100.00;101843.22;6353518;28;20048;-68
2023/12/03 11:54:36;;;;;;;21.77;8.32;;;;;;;1.24;100.00;101840.63;6353685;28;20058;-68
2023/12/03 11:57:38;;;;;;;19.92;7.28;;;;;;;1.33;100.00;101854.47;6353540;28;20058;-68
2023/12/03 12:00:40;;;;;;;19.02;7.50;;;;;;;1.24;100.00;101850.13;6353771;28;20059;-68
2023/12/03 12:03:43;;;;;;;17.08;5.97;;;;;;;1.33;100.00;101846.69;6353229;28;20424;-68
2023/12/03 12:06:44;;;;;;;19.67;6.93;;;;;;;1.41;100.00;101855.31;6353010;28;20052;-68
2023/12/03 12:09:46;;;;;;;19.85;7.85;;;;;;;1.49;100.00;101845.84;6353208;27;20050;-68
2023/12/03 12:12:47;;;;;;;23.02;7.05;;;;;;;1.54;100.00;101849.31;6353008;28;20439;-68
2023/12/03 12:15:48;;;;;;;20.45;7.45;;;;;;;1.53;100.00;101842.41;6353243;28;20051;-68
2023/12/03 12:18:51;;;;;;;25.08;9.07;;;;;;;1.55;100.00;101839.84;6352880;28;20130;-69
2023/12/03 12:21:53;;;;;;;21.60;7.85;;;;;;;1.57;100.00;101835.50;6353005;28;20051;-68
2023/12/03 12:24:54;;;;;;;22.42;7.90;;;;;;;1.58;100.00;101829.44;6352694;28;20048;-68
2023/12/03 12:27:56;;;;;;;22.73;8.35;;;;;;;1.59;100.00;101824.28;6352979;28;20043;-68
2023/12/03 12:30:57;;;;;;;21.33;7.97;;;;;;;1.56;100.00;101831.19;6352657;28;20048;-68
2023/12/03 12:34:00;;;;;;;18.23;7.75;;;;;;;1.59;100.00;101818.22;6352627;28;20044;-68
2023/12/03 12:37:05;;;;;;;20.33;6.97;;;;;;;1.63;100.00;101822.53;6352343;28;20058;-68
2023/12/03 12:40:08;;;;;;;18.13;7.95;;;;;;;1.66;100.00;101823.41;6352354;28;20092;-68
2023/12/03 12:43:11;;;;;;;26.70;8.38;;;;;;;1.70;100.00;101821.69;6352211;28;20058;-68
2023/12/03 12:46:12;;;;;;;25.05;8.60;;;;;;;1.71;100.00;101824.28;6352630;28;20047;-69
2023/12/03 12:49:15;;;;;;;20.02;7.25;;;;;;;1.76;100.00;101830.31;6352473;28;20044;-68
2023/12/03 12:52:16;;;;;;;17.35;7.88;;;;;;;1.78;100.00;101820.84;6352201;28;20047;-68
2023/12/03 12:55:26;;;;;;;21.38;7.30;;;;;;;1.74;100.00;101821.69;6352100;28;20051;-68
2023/12/03 12:58:27;;;;;;;23.17;8.32;;;;;;;1.77;100.00;101820.81;6351958;28;20043;-68
2023/12/03 13:01:30;;;;;;;18.48;7.40;;;;;;;1.77;100.00;101818.22;6352034;28;20052;-69
2023/12/03 13:04:33;;;;;;;27.92;9.48;;;;;;;1.72;100.00;101813.03;6351722;28;20048;-68
2023/12/03 13:07:34;;;;;;;20.80;7.63;;;;;;;1.74;100.00;101815.66;6351685;28;20498;-68
2023/12/03 13:10:36;;;;;;;22.00;8.38;;;;;;;1.69;100.00;101812.22;6351665;28;20040;-68
2023/12/03 13:13:37;;;;;;;21.00;7.50;;;;;;;1.72;100.00;101804.41;6351487;28;20051;-68
2023/12/03 13:16:38;;;;;;;19.10;7.13;;;;;;;1.71;100.00;101811.31;6351532;28;20428;-68
2023/12/03 13:19:41;;;;;;;23.52;8.10;;;;;;;1.75;100.00;101799.25;6351113;28;20047;-68
2023/12/03 13:22:43;;;;;;;22.17;8.23;;;;;;;1.76;100.00;101793.19;6351356;28;20363;-68
2023/12/03 13:25:44;;;;;;;24.08;8.70;;;;;;;1.78;100.00;101794.94;6351425;28;20473;-68
2023/12/03 13:28:46;;;;;;;23.35;7.85;;;;;;;1.74;100.00;101793.19;6351355;28;20039;-68
2023/12/03 13:31:47;;;;;;;17.58;8.18;;;;;;;1.78;100.00;101794.94;6350982;28;20093;-68
2023/12/03 13:34:50;;;;;;;23.45;7.72;;;;;;;1.79;100.00;101800.97;6351199;28;20055;-68
2023/12/03 13:37:51;;;;;;;26.48;9.00;;;;;;;1.75;100.00;101805.28;6350801;28;20043;-68
2023/12/03 13:40:54;;;;;;;18.52;6.88;;;;;;;1.73;100.00;101812.22;6351152;28;20052;-69
2023/12/03 13:43:56;;;;;;;22.75;7.78;;;;;;;1.71;100.00;101813.06;6350840;28;20058;-68
2023/12/03 13:46:57;;;;;;;19.65;7.82;;;;;;;1.69;100.00;101814.78;6351184;28;20458;-68
2023/12/03 13:50:01;;;;;;;26.25;8.80;;;;;;;1.71;100.00;101816.50;6350710;27;20070;-68
2023/12/03 13:53:04;;;;;;;22.58;8.63;;;;;;;1.74;100.00;101831.22;6350626;28;20177;-68